createdAt,value
2022-09-11T00:01:21.467Z,13.38
2022-09-11T00:03:49.313Z,11.55
2022-09-11T00:06:29.308Z,12.02
2022-09-11T00:09:00.954Z,11.10
2022-09-11T00:11:29.726Z,17.40
2022-09-11T00:13:57.726Z,12.57
2022-09-11T00:16:27.147Z,10.27
2022-09-11T00:18:56.535Z,10.90
2022-09-11T00:21:25.973Z,13.35
2022-09-11T00:23:53.689Z,12.88
2022-09-11T00:26:21.821Z,13.88
2022-09-11T00:28:52.431Z,12.20
2022-09-11T00:31:20.919Z,12.52
2022-09-11T00:33:48.622Z,10.77
2022-09-11T00:36:17.157Z,14.40
2022-09-11T00:38:47.733Z,13.45
2022-09-11T00:41:18.570Z,11.32
2022-09-11T00:43:56.982Z,14.63
2022-09-11T00:46:26.273Z,15.98
2022-09-11T00:48:58.520Z,19.48
2022-09-11T00:51:29.759Z,12.13
2022-09-11T00:53:59.657Z,15.35
2022-09-11T00:56:33.174Z,14.82
2022-09-11T00:59:07.526Z,16.57
2022-09-11T01:04:05.474Z,16.00
2022-09-11T01:06:33.469Z,17.50
2022-09-11T01:09:07.393Z,17.20
2022-09-11T01:11:48.588Z,22.08
2022-09-11T01:14:31.325Z,14.50
2022-09-11T01:17:11.689Z,17.25
2022-09-11T01:19:51.307Z,19.50
2022-09-11T01:22:31.035Z,18.35
2022-09-11T01:25:09.211Z,19.05
2022-09-11T01:27:41.805Z,15.73
2022-09-11T01:30:11.864Z,18.02
2022-09-11T01:32:46.733Z,24.85
2022-09-11T01:35:18.493Z,17.58
2022-09-11T01:37:51.709Z,19.98
2022-09-11T01:40:23.157Z,22.53
2022-09-11T01:42:53.908Z,18.75
2022-09-11T01:45:26.137Z,25.70
2022-09-11T01:47:54.786Z,19.40
2022-09-11T01:50:26.223Z,23.55
2022-09-11T01:52:58.233Z,21.02
2022-09-11T01:55:29.392Z,22.00
2022-09-11T01:58:05.363Z,23.75
2022-09-11T02:00:35.637Z,22.38
2022-09-11T02:03:09.322Z,24.17
2022-09-11T02:05:43.074Z,23.77
2022-09-11T02:08:16.539Z,20.92
2022-09-11T02:10:46.733Z,24.07
2022-09-11T02:13:27.198Z,21.95
2022-09-11T02:15:56.764Z,20.48
2022-09-11T02:18:26.937Z,21.50
2022-09-11T02:20:54.685Z,29.88
2022-09-11T02:23:26.137Z,20.77
2022-09-11T02:25:54.227Z,24.75
2022-09-11T02:28:23.497Z,22.40
2022-09-11T02:30:51.382Z,24.75
2022-09-11T02:33:30.801Z,20.58
2022-09-11T02:36:04.104Z,20.55
2022-09-11T02:38:36.720Z,25.58
2022-09-11T02:41:13.756Z,20.63
2022-09-11T02:43:52.185Z,20.13
2022-09-11T02:46:31.108Z,23.13
2022-09-11T02:49:04.450Z,22.35
2022-09-11T02:51:41.564Z,21.00
2022-09-11T02:54:19.452Z,20.80
2022-09-11T02:56:57.345Z,17.58
2022-09-11T02:59:29.156Z,18.40
2022-09-11T03:02:02.058Z,20.33
2022-09-11T03:04:32.159Z,17.40
2022-09-11T03:07:00.436Z,16.98
2022-09-11T03:09:30.370Z,15.07
2022-09-11T03:11:58.129Z,17.52
2022-09-11T03:14:28.433Z,17.35
2022-09-11T03:16:59.685Z,19.73
2022-09-11T03:19:30.734Z,19.23
2022-09-11T03:22:04.986Z,17.50
2022-09-11T03:27:08.286Z,10.15
2022-09-11T03:29:38.876Z,4.68
2022-09-11T03:32:08.310Z,6.82
2022-09-11T03:34:36.002Z,3.65
2022-09-11T03:37:06.285Z,3.67
2022-09-11T03:39:33.968Z,3.15
2022-09-11T03:42:02.465Z,2.90
2022-09-11T03:44:32.704Z,3.90
2022-09-11T03:47:03.483Z,3.58
2022-09-11T03:49:31.181Z,3.38
2022-09-11T03:52:01.243Z,3.78
2022-09-11T03:54:37.114Z,4.32
2022-09-11T03:57:05.174Z,4.78
2022-09-11T03:59:36.206Z,4.93
2022-09-11T04:02:05.618Z,4.25
2022-09-11T04:04:35.085Z,3.60
2022-09-11T04:07:02.746Z,3.17
2022-09-11T04:09:31.833Z,6.82
2022-09-11T04:12:03.033Z,4.28
2022-09-11T04:14:30.765Z,3.85
2022-09-11T04:17:00.779Z,4.22
2022-09-11T04:19:30.377Z,2.80
2022-09-11T04:21:58.083Z,3.13
2022-09-11T04:24:27.576Z,2.90
2022-09-11T04:26:59.973Z,3.75
2022-09-11T04:29:28.692Z,1.70
2022-09-11T04:31:57.789Z,1.48
2022-09-11T04:34:26.363Z,1.83
2022-09-11T04:36:56.507Z,1.67
2022-09-11T04:39:24.377Z,2.55
2022-09-11T04:41:52.076Z,3.15
2022-09-11T04:44:20.867Z,1.88
2022-09-11T04:46:48.693Z,1.63
2022-09-11T04:49:17.182Z,2.25
2022-09-11T04:51:45.324Z,2.33
2022-09-11T04:54:15.937Z,1.92
2022-09-11T04:56:43.645Z,5.13
2022-09-11T04:59:13.429Z,1.95
2022-09-11T05:01:41.363Z,2.13
2022-09-11T05:04:09.120Z,2.70
2022-09-11T05:06:38.034Z,2.05
2022-09-11T05:09:07.587Z,1.67
2022-09-11T05:11:38.378Z,1.63
2022-09-11T05:14:06.430Z,1.90
2022-09-11T05:16:34.739Z,1.70
2022-09-11T05:19:04.010Z,2.35
2022-09-11T05:21:32.027Z,2.45
2022-09-11T05:24:03.456Z,2.55
2022-09-11T05:26:32.501Z,2.22
2022-09-11T05:29:02.738Z,2.83
2022-09-11T05:31:32.205Z,2.90
2022-09-11T05:34:00.650Z,1.50
2022-09-11T05:36:31.111Z,1.92
2022-09-11T05:38:59.320Z,2.95
2022-09-11T05:41:27.237Z,1.80
2022-09-11T05:43:55.193Z,3.00
2022-09-11T05:46:24.193Z,1.75
2022-09-11T05:48:52.339Z,1.60
2022-09-11T05:51:21.592Z,1.40
2022-09-11T05:53:50.465Z,2.17
2022-09-11T05:56:19.191Z,2.00
2022-09-11T05:58:47.332Z,1.38
2022-09-11T06:01:15.746Z,5.78
2022-09-11T06:03:45.412Z,1.67
2022-09-11T06:06:14.011Z,1.95
2022-09-11T06:08:44.251Z,4.32
2022-09-11T06:11:13.210Z,1.85
2022-09-11T06:13:42.762Z,1.85
2022-09-11T06:16:14.566Z,3.65
2022-09-11T06:18:49.460Z,2.47
2022-09-11T06:21:19.721Z,1.60
2022-09-11T06:23:47.898Z,1.63
2022-09-11T06:26:16.887Z,3.35
2022-09-11T06:28:44.515Z,1.95
2022-09-11T06:31:13.363Z,1.85
2022-09-11T06:33:42.298Z,2.28
2022-09-11T06:36:13.667Z,1.85
2022-09-11T06:38:41.501Z,3.83
2022-09-11T06:41:12.696Z,3.35
2022-09-11T06:43:45.191Z,3.75
2022-09-11T06:46:14.168Z,1.73
2022-09-11T06:48:42.568Z,3.40
2022-09-11T06:51:13.091Z,2.22
2022-09-11T06:53:41.440Z,4.72
2022-09-11T06:56:12.311Z,2.55
2022-09-11T06:58:41.294Z,2.25
2022-09-11T07:01:11.249Z,2.13
2022-09-11T07:03:39.616Z,4.10
2022-09-11T07:06:07.665Z,1.60
2022-09-11T07:08:36.670Z,2.65
2022-09-11T07:11:05.672Z,2.00
2022-09-11T07:13:37.427Z,1.95
2022-09-11T07:16:07.233Z,2.08
2022-09-11T07:18:36.392Z,2.97
2022-09-11T07:21:06.419Z,2.08
2022-09-11T07:23:34.845Z,1.80
2022-09-11T07:26:08.749Z,1.90
2022-09-11T07:28:37.800Z,3.88
2022-09-11T07:31:06.314Z,1.80
2022-09-11T07:33:34.246Z,2.13
2022-09-11T07:36:12.859Z,2.25
2022-09-11T07:38:41.101Z,1.55
2022-09-11T07:41:13.307Z,2.33
2022-09-11T07:43:42.070Z,1.80
2022-09-11T07:46:12.286Z,3.55
2022-09-11T07:48:41.015Z,2.85
2022-09-11T07:51:15.707Z,3.47
2022-09-11T07:53:44.130Z,9.02
2022-09-11T07:56:14.860Z,5.65
2022-09-11T07:58:46.545Z,3.85
2022-09-11T08:01:16.655Z,2.58
2022-09-11T08:03:45.120Z,2.90
2022-09-11T08:06:15.337Z,2.50
2022-09-11T08:08:47.831Z,2.55
2022-09-11T08:11:18.751Z,2.80
2022-09-11T08:13:51.000Z,2.45
2022-09-11T08:16:21.257Z,2.50
2022-09-11T08:18:50.095Z,2.67
2022-09-11T08:21:17.726Z,2.42
2022-09-11T08:23:46.390Z,3.88
2022-09-11T08:26:16.018Z,4.00
2022-09-11T08:28:45.728Z,3.03
2022-09-11T08:31:14.961Z,2.05
2022-09-11T08:33:43.182Z,6.18
2022-09-11T08:36:15.396Z,3.33
2022-09-11T08:38:43.659Z,2.38
2022-09-11T08:41:13.001Z,2.38
2022-09-11T08:43:51.408Z,2.72
2022-09-11T08:46:32.250Z,3.70
2022-09-11T08:49:05.380Z,8.73
2022-09-11T08:51:35.612Z,2.67
2022-09-11T08:54:04.123Z,7.00
2022-09-11T08:56:40.718Z,43.55
2022-09-11T08:59:17.719Z,6.18
2022-09-11T09:01:48.434Z,4.15
2022-09-11T09:04:23.653Z,3.85
2022-09-11T09:06:55.358Z,4.70
2022-09-11T09:09:32.999Z,4.70
2022-09-11T09:12:11.010Z,5.20
2022-09-11T09:14:58.567Z,3.45
2022-09-11T09:17:27.424Z,3.83
2022-09-11T09:19:58.970Z,4.22
2022-09-11T09:22:28.700Z,4.55
2022-09-11T09:25:02.994Z,3.53
2022-09-11T09:30:01.122Z,6.22
2022-09-11T09:32:42.350Z,5.43
2022-09-11T09:35:16.882Z,4.22
2022-09-11T09:37:45.922Z,4.45
2022-09-11T09:40:21.567Z,6.97
2022-09-11T09:43:05.197Z,5.78
2022-09-11T09:45:48.323Z,4.72
2022-09-11T09:48:16.386Z,4.22
2022-09-11T09:50:45.680Z,5.45
2022-09-11T09:53:17.634Z,6.38
2022-09-11T09:55:47.590Z,7.25
2022-09-11T09:58:15.614Z,5.93
2022-09-11T10:00:48.457Z,9.85
2022-09-11T10:03:19.694Z,8.32
2022-09-11T10:05:48.478Z,5.35
2022-09-11T10:08:31.547Z,7.45
2022-09-11T10:11:00.145Z,6.78
2022-09-11T10:13:32.457Z,5.00
2022-09-11T10:16:06.594Z,5.75
2022-09-11T10:21:26.056Z,6.82
2022-09-11T10:23:59.696Z,4.22
2022-09-11T10:26:40.884Z,6.20
2022-09-11T10:29:13.259Z,6.15
2022-09-11T10:31:57.129Z,5.38
2022-09-11T10:34:28.677Z,4.68
2022-09-11T10:36:57.883Z,4.32
2022-09-11T10:39:27.245Z,5.38
2022-09-11T10:42:08.681Z,6.30
2022-09-11T10:44:37.127Z,7.53
2022-09-11T10:47:19.150Z,6.57
2022-09-11T10:49:48.041Z,6.25
2022-09-11T10:52:20.038Z,7.38
2022-09-11T10:55:05.053Z,5.30
2022-09-11T10:57:37.839Z,11.13
2022-09-11T11:00:08.405Z,14.80
2022-09-11T11:02:42.567Z,10.30
2022-09-11T11:05:21.024Z,9.43
2022-09-11T11:07:58.316Z,6.28
2022-09-11T11:10:34.741Z,7.70
2022-09-11T11:13:07.995Z,6.35
2022-09-11T11:15:40.951Z,6.25
2022-09-11T11:18:23.465Z,5.45
2022-09-11T11:20:56.863Z,4.47
2022-09-11T11:23:34.038Z,9.27
2022-09-11T11:26:11.373Z,8.25
2022-09-11T11:28:50.828Z,5.80
2022-09-11T11:31:25.009Z,7.55
2022-09-11T11:34:01.746Z,6.85
2022-09-11T11:36:32.705Z,6.65
2022-09-11T11:39:02.339Z,10.63
2022-09-11T11:41:31.820Z,6.15
2022-09-11T11:44:02.579Z,8.35
2022-09-11T11:46:33.683Z,5.13
2022-09-11T11:49:04.211Z,7.93
2022-09-11T11:51:35.128Z,7.18
2022-09-11T11:54:06.749Z,6.22
2022-09-11T11:56:36.962Z,8.15
2022-09-11T11:59:07.400Z,7.35
2022-09-11T12:01:40.122Z,7.65
2022-09-11T12:04:17.586Z,8.98
2022-09-11T12:06:45.489Z,6.28
2022-09-11T12:09:15.828Z,9.85
2022-09-11T12:11:44.768Z,7.65
2022-09-11T12:14:22.157Z,6.60
2022-09-11T12:16:52.441Z,10.00
2022-09-11T12:19:23.791Z,7.88
2022-09-11T12:22:06.085Z,6.88
2022-09-11T12:24:55.146Z,6.75
2022-09-11T12:27:41.259Z,6.82
2022-09-11T12:30:10.236Z,6.82
2022-09-11T12:32:44.898Z,7.85
2022-09-11T12:35:21.427Z,7.38
2022-09-11T12:37:54.222Z,7.13
2022-09-11T12:40:24.865Z,8.27
2022-09-11T12:42:59.802Z,9.52
2022-09-11T12:45:35.617Z,7.00
2022-09-11T12:48:07.597Z,12.68
2022-09-11T12:50:36.758Z,55.17
2022-09-11T12:53:05.211Z,10.50
2022-09-11T12:55:35.008Z,6.82
2022-09-11T12:58:04.474Z,5.28
2022-09-11T13:00:35.328Z,4.43
2022-09-11T13:03:08.315Z,6.40
2022-09-11T13:05:39.996Z,4.78
2022-09-11T13:08:11.303Z,4.57
2022-09-11T13:10:40.941Z,4.28
2022-09-11T13:13:31.455Z,7.85
2022-09-11T13:15:59.335Z,8.10
2022-09-11T13:18:31.122Z,5.68
2022-09-11T13:21:13.690Z,15.48
2022-09-11T13:23:43.671Z,5.05
2022-09-11T13:26:16.067Z,4.10
2022-09-11T13:28:48.481Z,3.78
2022-09-11T13:31:21.533Z,6.10
2022-09-11T13:33:50.721Z,4.55
2022-09-11T13:36:20.743Z,3.13
2022-09-11T13:38:52.006Z,4.43
2022-09-11T13:41:26.958Z,3.83
2022-09-11T13:43:58.300Z,5.45
2022-09-11T13:46:27.227Z,8.18
2022-09-11T13:49:00.396Z,5.88
2022-09-11T13:51:39.569Z,4.25
2022-09-11T13:54:11.706Z,9.00
2022-09-11T13:56:45.740Z,3.97
2022-09-11T13:59:44.916Z,5.20
2022-09-11T14:02:33.757Z,7.95
2022-09-11T14:05:10.240Z,6.88
2022-09-11T14:07:44.229Z,6.90
2022-09-11T14:10:19.528Z,7.88
2022-09-11T14:12:50.504Z,5.72
2022-09-11T14:15:21.508Z,9.95
2022-09-11T14:17:49.367Z,9.07
2022-09-11T14:20:20.293Z,7.28
2022-09-11T14:22:48.503Z,5.50
2022-09-11T14:25:21.823Z,7.13
2022-09-11T14:27:49.713Z,5.90
2022-09-11T14:30:41.820Z,7.95
2022-09-11T14:33:25.796Z,9.48
2022-09-11T14:35:56.548Z,6.43
2022-09-11T14:38:25.710Z,8.07
2022-09-11T14:40:57.975Z,7.97
2022-09-11T14:43:27.787Z,10.35
2022-09-11T14:45:58.944Z,6.65
2022-09-11T14:48:27.312Z,14.07
2022-09-11T14:50:55.151Z,7.60
2022-09-11T14:53:33.477Z,14.63
2022-09-11T14:56:03.361Z,7.47
2022-09-11T14:58:34.514Z,8.68
2022-09-11T15:01:02.743Z,8.63
2022-09-11T15:03:31.960Z,7.50
2022-09-11T15:06:06.783Z,9.75
2022-09-11T15:08:34.729Z,7.45
2022-09-11T15:11:06.889Z,7.88
2022-09-11T15:13:35.716Z,8.95
2022-09-11T15:16:03.566Z,11.45
2022-09-11T15:18:31.606Z,8.13
2022-09-11T15:20:59.301Z,8.63
2022-09-11T15:23:27.191Z,12.75
2022-09-11T15:26:01.927Z,7.45
2022-09-11T15:28:33.348Z,8.75
2022-09-11T15:31:02.008Z,10.88
2022-09-11T15:33:35.920Z,9.90
2022-09-11T15:36:05.573Z,7.60
2022-09-11T15:38:33.485Z,8.52
2022-09-11T15:41:02.419Z,10.85
2022-09-11T15:43:36.585Z,11.45
2022-09-11T15:46:08.642Z,11.75
2022-09-11T15:48:36.730Z,11.35
2022-09-11T15:51:06.830Z,8.60
2022-09-11T15:53:37.232Z,10.23
2022-09-11T15:56:09.610Z,10.45
2022-09-11T15:58:40.626Z,12.98
2022-09-11T16:01:10.925Z,12.25
2022-09-11T16:03:42.843Z,11.73
2022-09-11T16:06:10.674Z,19.10
2022-09-11T16:08:39.904Z,13.13
2022-09-11T16:11:09.247Z,14.73
2022-09-11T16:13:39.244Z,18.70
2022-09-11T16:16:07.658Z,21.10
2022-09-11T16:18:38.804Z,21.73
2022-09-11T16:21:07.348Z,26.63
2022-09-11T16:23:35.539Z,24.27
2022-09-11T16:26:03.964Z,22.58
2022-09-11T16:28:33.697Z,20.48
2022-09-11T16:31:03.406Z,25.10
2022-09-11T16:33:31.885Z,29.17
2022-09-11T16:36:00.685Z,22.85
2022-09-11T16:38:29.402Z,20.38
2022-09-11T16:41:04.148Z,19.00
2022-09-11T16:43:32.544Z,20.58
2022-09-11T16:46:00.511Z,24.00
2022-09-11T16:48:31.667Z,27.88
2022-09-11T16:50:59.795Z,18.55
2022-09-11T16:53:33.683Z,25.90
2022-09-11T16:56:04.850Z,17.50
2022-09-11T16:58:34.421Z,16.98
2022-09-11T17:01:05.654Z,20.50
2022-09-11T17:03:39.427Z,23.42
2022-09-11T17:06:10.862Z,25.48
2022-09-11T17:08:50.520Z,28.60
2022-09-11T17:11:26.932Z,21.38
2022-09-11T17:13:54.700Z,25.27
2022-09-11T17:16:23.988Z,26.30
2022-09-11T17:18:54.695Z,30.08
2022-09-11T17:21:26.080Z,30.63
2022-09-11T17:23:54.508Z,24.67
2022-09-11T17:26:23.045Z,24.23
2022-09-11T17:28:51.539Z,29.85
2022-09-11T17:31:20.272Z,21.48
2022-09-11T17:33:48.617Z,21.20
2022-09-11T17:36:20.852Z,25.60
2022-09-11T17:38:53.389Z,28.50
2022-09-11T17:41:22.078Z,22.48
2022-09-11T17:43:51.979Z,17.67
2022-09-11T17:46:23.568Z,18.38
2022-09-11T17:48:51.469Z,20.38
2022-09-11T17:51:25.519Z,17.63
2022-09-11T17:53:54.469Z,14.85
2022-09-11T17:56:23.236Z,16.45
2022-09-11T17:58:51.382Z,16.10
2022-09-11T18:01:19.372Z,16.08
2022-09-11T18:03:53.375Z,14.90
2022-09-11T18:06:32.828Z,16.17
2022-09-11T18:09:02.114Z,12.25
2022-09-11T18:11:30.119Z,13.93
2022-09-11T18:14:00.973Z,14.48
2022-09-11T18:16:30.972Z,13.13
2022-09-11T18:19:08.135Z,16.13
2022-09-11T18:21:38.470Z,11.93
2022-09-11T18:24:06.972Z,12.85
2022-09-11T18:26:40.269Z,13.35
2022-09-11T18:29:12.840Z,14.35
2022-09-11T18:31:44.248Z,16.38
2022-09-11T18:34:12.561Z,16.73
2022-09-11T18:36:45.626Z,19.15
2022-09-11T18:39:14.436Z,16.08
2022-09-11T18:41:44.439Z,13.77
2022-09-11T18:44:19.648Z,18.52
2022-09-11T18:46:48.035Z,16.23
2022-09-11T18:49:16.478Z,24.25
2022-09-11T18:51:45.834Z,18.58
2022-09-11T18:54:15.702Z,21.75
2022-09-11T18:56:43.614Z,17.50
2022-09-11T18:59:11.939Z,16.48
2022-09-11T19:01:40.189Z,18.88
2022-09-11T19:04:08.669Z,19.58
2022-09-11T19:06:39.193Z,16.58
2022-09-11T19:09:10.571Z,16.42
2022-09-11T19:11:38.948Z,24.45
2022-09-11T19:14:10.699Z,19.77
2022-09-11T19:16:43.618Z,23.95
2022-09-11T19:19:11.431Z,18.60
2022-09-11T19:21:42.228Z,25.42
2022-09-11T19:24:13.285Z,18.55
2022-09-11T19:26:45.441Z,21.00
2022-09-11T19:29:15.993Z,18.60
2022-09-11T19:31:43.858Z,24.38
2022-09-11T19:34:13.136Z,23.35
2022-09-11T19:36:48.166Z,18.77
2022-09-11T19:39:18.379Z,21.40
2022-09-11T19:41:46.476Z,19.27
2022-09-11T19:44:29.189Z,22.60
2022-09-11T19:46:57.913Z,22.10
2022-09-11T19:49:25.577Z,19.83
2022-09-11T19:51:53.654Z,19.50
2022-09-11T19:54:23.316Z,18.38
2022-09-11T19:56:51.236Z,19.63
2022-09-11T19:59:19.432Z,19.33
2022-09-11T20:01:47.144Z,21.10
2022-09-11T20:04:20.586Z,23.75
2022-09-11T20:09:32.401Z,27.85
2022-09-11T20:12:01.887Z,28.13
2022-09-11T20:14:31.360Z,29.55
2022-09-11T20:17:01.329Z,27.30
2022-09-11T20:19:29.143Z,35.47
2022-09-11T20:21:56.804Z,37.42
2022-09-11T20:24:24.489Z,33.85
2022-09-11T20:26:55.468Z,33.05
2022-09-11T20:29:27.787Z,37.03
2022-09-11T20:31:55.995Z,40.53
2022-09-11T20:34:27.949Z,41.72
2022-09-11T20:37:00.847Z,31.95
2022-09-11T20:39:28.960Z,42.65
2022-09-11T20:41:56.634Z,39.97
2022-09-11T20:44:28.760Z,37.88
2022-09-11T20:46:56.629Z,35.40
2022-09-11T20:49:24.540Z,39.47
2022-09-11T20:51:52.150Z,37.58
2022-09-11T20:54:24.415Z,32.80
2022-09-11T20:56:52.095Z,33.75
2022-09-11T20:59:19.835Z,37.38
2022-09-11T21:01:52.050Z,34.97
2022-09-11T21:04:19.723Z,36.47
2022-09-11T21:06:51.637Z,41.00
2022-09-11T21:09:19.469Z,33.22
2022-09-11T21:11:47.269Z,39.78
2022-09-11T21:14:15.917Z,32.85
2022-09-11T21:16:43.544Z,36.88
2022-09-11T21:19:12.527Z,34.45
2022-09-11T21:21:42.789Z,33.85
2022-09-11T21:24:12.752Z,30.65
2022-09-11T21:26:40.701Z,38.70
2022-09-11T21:29:09.741Z,34.47
2022-09-11T21:31:37.455Z,33.60
2022-09-11T21:34:05.592Z,34.83
2022-09-11T21:36:34.597Z,37.28
2022-09-11T21:39:02.227Z,35.85
2022-09-11T21:41:32.948Z,36.88
2022-09-11T21:44:02.863Z,35.00
2022-09-11T21:46:36.105Z,35.15
2022-09-11T21:49:05.624Z,32.97
2022-09-11T21:51:34.664Z,37.45
2022-09-11T21:54:06.151Z,37.83
2022-09-11T21:56:34.524Z,32.88
2022-09-11T21:59:02.679Z,40.83
2022-09-11T22:01:32.112Z,40.17
2022-09-11T22:04:01.169Z,42.78
2022-09-11T22:06:29.215Z,35.63
2022-09-11T22:09:00.430Z,31.80
2022-09-11T22:11:30.326Z,32.67
2022-09-11T22:13:58.407Z,35.50
2022-09-11T22:16:26.145Z,36.08
2022-09-11T22:18:54.774Z,31.25
2022-09-11T22:21:22.490Z,33.28
2022-09-11T22:23:52.480Z,38.95
2022-09-11T22:26:25.688Z,36.63
2022-09-11T22:29:00.573Z,33.95
2022-09-11T22:31:31.568Z,33.42
2022-09-11T22:33:59.197Z,40.05
2022-09-11T22:36:35.954Z,31.38
2022-09-11T22:39:10.247Z,33.88
2022-09-11T22:44:06.717Z,28.90
2022-09-11T22:46:34.646Z,34.78
2022-09-11T22:49:05.616Z,30.40
2022-09-11T22:51:34.076Z,32.47
2022-09-11T22:54:03.000Z,34.42
2022-09-11T22:56:33.428Z,33.80
2022-09-11T22:59:01.075Z,31.60
2022-09-11T23:01:32.006Z,27.77
2022-09-11T23:04:01.734Z,31.42
2022-09-11T23:06:47.918Z,36.45
2022-09-11T23:09:21.746Z,27.40
2022-09-11T23:11:50.496Z,28.85
2022-09-11T23:14:22.797Z,26.65
2022-09-11T23:16:51.745Z,28.65
2022-09-11T23:19:19.983Z,26.58
2022-09-11T23:21:47.607Z,29.92
2022-09-11T23:24:17.994Z,30.45
2022-09-11T23:26:46.644Z,26.25
2022-09-11T23:29:14.667Z,29.83
2022-09-11T23:31:42.680Z,26.42
2022-09-11T23:34:16.037Z,29.60
2022-09-11T23:36:48.209Z,25.15
2022-09-11T23:39:15.897Z,26.98
2022-09-11T23:41:48.371Z,25.77
2022-09-11T23:44:16.070Z,32.20
2022-09-11T23:46:43.804Z,27.70
2022-09-11T23:49:13.072Z,29.65
2022-09-11T23:51:45.375Z,29.73
2022-09-11T23:54:15.881Z,26.65
2022-09-11T23:56:43.521Z,26.60
2022-09-11T23:59:11.350Z,22.58
